Terminal Aerodrome Forecast
Issued by NWS

Home | Current Version | Previous Version | Text Only | Print | Product List | Glossary On
Versions: 1 2 3 4 5 6 7 8 9 10 11 12 13 14 15 16 17 18 19 20 21 22 23 24 25
000
FTUS46 KLOX 191144
TAFOXR
TAF
KOXR 191144Z 1912/2012 02010KT 2SM RA BR BKN015 OVC025
     FM191300 23012KT P6SM -SHRA SCT015 OVC025
     FM191600 26015KT P6SM VCSH BKN025 BKN050
     FM191900 28018G25KT P6SM VCSH SCT025 BKN050
     FM200100 28012KT P6SM SCT025 BKN050
     FM201000 VRB03KT P6SM VCSH OVC025=

USA.gov is the U.S. government's official web portal to all federal, state and local government web resources and services.